Time;durP1;ratioP1;P1;durP2;ratioP2;P2;SDS_P1;SDS_P2;PMS_P1;PMS_P2;Temp;Humidity;BMP_temperature;BMP_pressure;BME280_temperature;BME280_humidity;BME280_pressure;Samples;Min_cycle;Max_cycle;Signal;HPM_P1;HPM_P2
2021/05/03 00:00:12;;;;;;;6.33;3.6;;;7.4;99.9;;;;;;;;;
2021/05/03 00:01:02;;;;;;;6.33;3.6;;;7.4;99.9;;;;;;;;;
2021/05/03 00:02:02;;;;;;;4.9;4;;;7.4;99.9;;;;;;;;;
2021/05/03 00:02:25;;;;;;;5.7;4.43;;;7.4;99.9;;;;;;;;;
2021/05/03 00:03:02;;;;;;;5.7;4.43;;;7.4;99.9;;;;;;;;;
2021/05/03 00:03:16;;;;;;;4.17;3.7;;;7.4;99.9;;;;;;;;;
2021/05/03 00:04:02;;;;;;;4.17;3.7;;;7.4;99.9;;;;;;;;;
2021/05/03 00:04:12;;;;;;;5.53;3.7;;;7.4;99.9;;;;;;;;;
2021/05/03 00:04:38;;;;;;;5.53;3.7;;;7.4;99.9;;;;;;;;;
2021/05/03 00:05:02;;;;;;;5.53;3.7;;;7.4;99.9;;;;;;;;;
2021/05/03 00:05:14;;;;;;;7.93;5.3;;;7.4;99.9;;;;;;;;;
2021/05/03 00:05:29;;;;;;;7.93;5.3;;;7.4;99.9;;;;;;;;;
2021/05/03 00:06:02;;;;;;;7.93;5.3;;;7.4;99.9;;;;;;;;;
2021/05/03 00:06:16;;;;;;;6.3;4.1;;;7.4;99.9;;;;;;;;;
2021/05/03 00:06:25;;;;;;;6.3;4.1;;;7.4;99.9;;;;;;;;;
2021/05/03 00:06:51;;;;;;;6.3;4.1;;;7.4;99.9;;;;;;;;;
2021/05/03 00:07:02;;;;;;;6.3;4.1;;;7.4;99.9;;;;;;;;;
2021/05/03 00:07:17;;;;;;;4.5;3.97;;;7.4;99.9;;;;;;;;;
2021/05/03 00:07:32;;;;;;;4.5;3.97;;;7.4;99.9;;;;;;;;;
2021/05/03 00:07:42;;;;;;;4.5;3.97;;;7.4;99.9;;;;;;;;;
2021/05/03 00:08:02;;;;;;;4.5;3.97;;;7.4;99.9;;;;;;;;;
2021/05/03 00:08:13;;;;;;;4.8;4.1;;;7.4;99.9;;;;;;;;;
2021/05/03 00:08:28;;;;;;;4.8;4.1;;;7.4;99.9;;;;;;;;;
2021/05/03 00:08:39;;;;;;;4.8;4.1;;;7.4;99.9;;;;;;;;;
2021/05/03 00:09:02;;;;;;;4.8;4.1;;;7.4;99.9;;;;;;;;;
2021/05/03 00:09:04;;;;;;;4.8;4.1;;;7.4;99.9;;;;;;;;;
2021/05/03 00:09:14;;;;;;;5.7;3.7;;;7.3;99.9;;;;;;;;;
2021/05/03 00:09:30;;;;;;;5.7;3.7;;;7.3;99.9;;;;;;;;;
2021/05/03 00:09:45;;;;;;;5.7;3.7;;;7.3;99.9;;;;;;;;;
2021/05/03 00:09:55;;;;;;;5.7;3.7;;;7.3;99.9;;;;;;;;;
2021/05/03 00:10:01;;;;;;;5.7;3.7;;;7.3;99.9;;;;;;;;;
2021/05/03 00:10:16;;;;;;;4.63;3.83;;;7.3;99.9;;;;;;;;;
2021/05/03 00:10:26;;;;;;;4.63;3.83;;;7.3;99.9;;;;;;;;;
2021/05/03 00:10:42;;;;;;;4.63;3.83;;;7.3;99.9;;;;;;;;;
2021/05/03 00:10:52;;;;;;;4.63;3.83;;;7.3;99.9;;;;;;;;;
2021/05/03 00:11:01;;;;;;;4.63;3.83;;;7.3;99.9;;;;;;;;;
2021/05/03 00:11:17;;;;;;;5.2;4.1;;;7.3;99.9;;;;;;;;;
2021/05/03 00:11:28;;;;;;;5.2;4.1;;;7.3;99.9;;;;;;;;;
2021/05/03 00:11:43;;;;;;;5.2;4.1;;;7.3;99.9;;;;;;;;;
2021/05/03 00:11:58;;;;;;;5.2;4.1;;;7.3;99.9;;;;;;;;;
2021/05/03 00:12:02;;;;;;;5.2;4.1;;;7.3;99.9;;;;;;;;;
2021/05/03 00:12:09;;;;;;;5.2;4.1;;;7.3;99.9;;;;;;;;;
2021/05/03 00:12:14;;;;;;;5.33;4.13;;;7.2;99.9;;;;;;;;;
2021/05/03 00:12:30;;;;;;;5.33;4.13;;;7.2;99.9;;;;;;;;;
2021/05/03 00:12:39;;;;;;;5.33;4.13;;;7.2;99.9;;;;;;;;;
2021/05/03 00:12:55;;;;;;;5.33;4.13;;;7.2;99.9;;;;;;;;;
2021/05/03 00:13:02;;;;;;;5.33;4.13;;;7.2;99.9;;;;;;;;;
2021/05/03 00:13:05;;;;;;;5.33;4.13;;;7.2;99.9;;;;;;;;;
2021/05/03 00:13:15;;;;;;;5.1;4.53;;;7.2;99.9;;;;;;;;;
2021/05/03 00:13:30;;;;;;;5.1;4.53;;;7.2;99.9;;;;;;;;;
2021/05/03 00:13:41;;;;;;;5.1;4.53;;;7.2;99.9;;;;;;;;;
2021/05/03 00:13:56;;;;;;;5.1;4.53;;;7.2;99.9;;;;;;;;;
2021/05/03 00:14:02;;;;;;;5.1;4.53;;;7.2;99.9;;;;;;;;;
2021/05/03 00:14:11;;;;;;;5.1;4.53;;;7.2;99.9;;;;;;;;;
2021/05/03 00:14:17;;;;;;;5.7;4.2;;;7.2;99.9;;;;;;;;;
2021/05/03 00:14:27;;;;;;;5.7;4.2;;;7.2;99.9;;;;;;;;;
2021/05/03 00:14:42;;;;;;;5.7;4.2;;;7.2;99.9;;;;;;;;;
2021/05/03 00:14:52;;;;;;;5.7;4.2;;;7.2;99.9;;;;;;;;;
2021/05/03 00:15:02;;;;;;;5.7;4.2;;;7.2;99.9;;;;;;;;;
2021/05/03 00:15:08;;;;;;;5.7;4.2;;;7.2;99.9;;;;;;;;;
2021/05/03 00:15:13;;;;;;;5.7;4.2;;;7.2;99.9;;;;;;;;;
2021/05/03 00:15:28;;;;;;;4.43;4.03;;;7.1;99.9;;;;;;;;;
2021/05/03 00:15:44;;;;;;;4.43;4.03;;;7.1;99.9;;;;;;;;;
2021/05/03 00:15:54;;;;;;;4.43;4.03;;;7.1;99.9;;;;;;;;;
2021/05/03 00:16:02;;;;;;;4.43;4.03;;;7.1;99.9;;;;;;;;;
2021/05/03 00:16:09;;;;;;;4.43;4.03;;;7.1;99.9;;;;;;;;;
2021/05/03 00:16:14;;;;;;;4.73;4.3;;;7;99.9;;;;;;;;;
2021/05/03 00:16:30;;;;;;;4.73;4.3;;;7;99.9;;;;;;;;;
2021/05/03 00:16:40;;;;;;;4.73;4.3;;;7;99.9;;;;;;;;;
2021/05/03 00:16:55;;;;;;;4.73;4.3;;;7;99.9;;;;;;;;;
2021/05/03 00:17:02;;;;;;;4.73;4.3;;;7;99.9;;;;;;;;;
2021/05/03 00:17:05;;;;;;;4.73;4.3;;;7;99.9;;;;;;;;;
2021/05/03 00:17:16;;;;;;;5.2;3.93;;;7;99.9;;;;;;;;;
2021/05/03 00:17:26;;;;;;;5.2;3.93;;;7;99.9;;;;;;;;;
2021/05/03 00:17:41;;;;;;;5.2;3.93;;;7;99.9;;;;;;;;;
2021/05/03 00:17:57;;;;;;;5.2;3.93;;;7;99.9;;;;;;;;;
2021/05/03 00:18:01;;;;;;;5.2;3.93;;;7;99.9;;;;;;;;;
2021/05/03 00:18:07;;;;;;;5.2;3.93;;;7;99.9;;;;;;;;;
2021/05/03 00:18:12;;;;;;;5.2;3.93;;;7;99.9;;;;;;;;;
2021/05/03 00:18:27;;;;;;;5.47;4.43;;;6.9;99.9;;;;;;;;;
2021/05/03 00:18:43;;;;;;;5.47;4.43;;;6.9;99.9;;;;;;;;;
2021/05/03 00:18:53;;;;;;;5.47;4.43;;;6.9;99.9;;;;;;;;;
2021/05/03 00:19:02;;;;;;;5.47;4.43;;;6.9;99.9;;;;;;;;;
2021/05/03 00:19:08;;;;;;;5.47;4.43;;;6.9;99.9;;;;;;;;;
2021/05/03 00:19:14;;;;;;;5.47;4.43;;;6.9;99.9;;;;;;;;;
2021/05/03 00:19:29;;;;;;;5.1;4.5;;;7;99.9;;;;;;;;;
2021/05/03 00:19:39;;;;;;;5.1;4.5;;;7;99.9;;;;;;;;;
2021/05/03 00:19:54;;;;;;;5.1;4.5;;;7;99.9;;;;;;;;;
2021/05/03 00:20:02;;;;;;;5.1;4.5;;;7;99.9;;;;;;;;;
2021/05/03 00:20:10;;;;;;;5.1;4.5;;;7;99.9;;;;;;;;;
2021/05/03 00:20:15;;;;;;;5.1;4.5;;;7;99.9;;;;;;;;;
2021/05/03 00:20:25;;;;;;;4.57;4;;;7;99.9;;;;;;;;;
2021/05/03 00:20:41;;;;;;;4.57;4;;;7;99.9;;;;;;;;;
2021/05/03 00:20:56;;;;;;;4.57;4;;;7;99.9;;;;;;;;;
2021/05/03 00:21:02;;;;;;;4.57;4;;;7;99.9;;;;;;;;;
2021/05/03 00:21:06;;;;;;;4.57;4;;;7;99.9;;;;;;;;;
2021/05/03 00:21:16;;;;;;;6.17;4.7;;;7;99.9;;;;;;;;;
2021/05/03 00:21:27;;;;;;;6.17;4.7;;;7;99.9;;;;;;;;;
2021/05/03 00:21:42;;;;;;;6.17;4.7;;;7;99.9;;;;;;;;;
2021/05/03 00:21:52;;;;;;;6.17;4.7;;;7;99.9;;;;;;;;;
2021/05/03 00:22:02;;;;;;;6.17;4.7;;;7;99.9;;;;;;;;;
2021/05/03 00:22:08;;;;;;;6.17;4.7;;;7;99.9;;;;;;;;;
2021/05/03 00:22:18;;;;;;;4.5;4.1;;;7;99.9;;;;;;;;;
2021/05/03 00:22:28;;;;;;;4.5;4.1;;;7;99.9;;;;;;;;;
2021/05/03 00:22:38;;;;;;;4.5;4.1;;;7;99.9;;;;;;;;;
2021/05/03 00:22:54;;;;;;;4.5;4.1;;;7;99.9;;;;;;;;;
2021/05/03 00:23:02;;;;;;;4.5;4.1;;;7;99.9;;;;;;;;;
2021/05/03 00:23:09;;;;;;;4.5;4.1;;;7;99.9;;;;;;;;;
2021/05/03 00:23:19;;;;;;;5.43;4.4;;;7.1;99.9;;;;;;;;;
2021/05/03 00:23:30;;;;;;;5.43;4.4;;;7.1;99.9;;;;;;;;;
2021/05/03 00:23:40;;;;;;;5.43;4.4;;;7.1;99.9;;;;;;;;;
2021/05/03 00:23:55;;;;;;;5.43;4.4;;;7.1;99.9;;;;;;;;;
2021/05/03 00:24:02;;;;;;;5.43;4.4;;;7.1;99.9;;;;;;;;;
2021/05/03 00:24:05;;;;;;;5.43;4.4;;;7.1;99.9;;;;;;;;;
2021/05/03 00:24:16;;;;;;;5.43;4.4;;;7.1;99.9;;;;;;;;;
2021/05/03 00:24:31;;;;;;;6.8;4.5;;;7.1;99.9;;;;;;;;;
2021/05/03 00:24:41;;;;;;;6.8;4.5;;;7.1;99.9;;;;;;;;;
2021/05/03 00:24:51;;;;;;;6.8;4.5;;;7.1;99.9;;;;;;;;;
2021/05/03 00:25:01;;;;;;;6.8;4.5;;;7.1;99.9;;;;;;;;;
2021/05/03 00:25:07;;;;;;;6.8;4.5;;;7.1;99.9;;;;;;;;;
2021/05/03 00:25:12;;;;;;;6.8;4.5;;;7.1;99.9;;;;;;;;;
2021/05/03 00:25:32;;;;;;;4.47;4;;;7;99.9;;;;;;;;;
2021/05/03 00:25:43;;;;;;;4.47;4;;;7;99.9;;;;;;;;;
2021/05/03 00:25:53;;;;;;;4.47;4;;;7;99.9;;;;;;;;;
2021/05/03 00:26:03;;;;;;;4.47;4;;;7;99.9;;;;;;;;;
2021/05/03 00:26:10;;;;;;;4.47;4;;;7;99.9;;;;;;;;;
2021/05/03 00:26:13;;;;;;;4.47;4;;;7;99.9;;;;;;;;;
2021/05/03 00:26:29;;;;;;;7.27;4.23;;;7;99.9;;;;;;;;;
2021/05/03 00:26:44;;;;;;;7.27;4.23;;;7;99.9;;;;;;;;;
2021/05/03 00:26:54;;;;;;;7.27;4.23;;;7;99.9;;;;;;;;;
2021/05/03 00:27:02;;;;;;;7.27;4.23;;;7;99.9;;;;;;;;;
2021/05/03 00:27:05;;;;;;;7.27;4.23;;;7;99.9;;;;;;;;;
2021/05/03 00:27:16;;;;;;;7.27;4.23;;;7;99.9;;;;;;;;;
2021/05/03 00:27:25;;;;;;;5.43;4.9;;;7.1;99.9;;;;;;;;;
2021/05/03 00:27:46;;;;;;;5.43;4.9;;;7.1;99.9;;;;;;;;;
2021/05/03 00:27:56;;;;;;;5.43;4.9;;;7.1;99.9;;;;;;;;;
2021/05/03 00:28:01;;;;;;;5.43;4.9;;;7.1;99.9;;;;;;;;;
2021/05/03 00:28:06;;;;;;;5.43;4.9;;;7.1;99.9;;;;;;;;;
2021/05/03 00:28:16;;;;;;;5.43;4.9;;;7.1;99.9;;;;;;;;;
2021/05/03 00:28:27;;;;;;;5.7;4.37;;;7;99.9;;;;;;;;;
2021/05/03 00:28:42;;;;;;;5.7;4.37;;;7;99.9;;;;;;;;;
2021/05/03 00:28:57;;;;;;;5.7;4.37;;;7;99.9;;;;;;;;;
2021/05/03 00:29:02;;;;;;;5.7;4.37;;;7;99.9;;;;;;;;;
2021/05/03 00:29:08;;;;;;;5.7;4.37;;;7;99.9;;;;;;;;;
2021/05/03 00:29:18;;;;;;;5.7;4.37;;;7;99.9;;;;;;;;;
2021/05/03 00:29:28;;;;;;;5.93;4.13;;;7.1;99.9;;;;;;;;;
2021/05/03 00:29:38;;;;;;;5.93;4.13;;;7.1;99.9;;;;;;;;;
2021/05/03 00:29:59;;;;;;;5.93;4.13;;;7.1;99.9;;;;;;;;;
2021/05/03 00:30:01;;;;;;;5.93;4.13;;;7.1;99.9;;;;;;;;;
2021/05/03 00:30:09;;;;;;;5.93;4.13;;;7.1;99.9;;;;;;;;;
2021/05/03 00:30:15;;;;;;;5.93;4.13;;;7.1;99.9;;;;;;;;;
2021/05/03 00:30:29;;;;;;;5.3;4.2;;;7.1;99.9;;;;;;;;;
2021/05/03 00:30:40;;;;;;;5.3;4.2;;;7.1;99.9;;;;;;;;;
2021/05/03 00:30:55;;;;;;;5.3;4.2;;;7.1;99.9;;;;;;;;;
2021/05/03 00:31:02;;;;;;;5.3;4.2;;;7.1;99.9;;;;;;;;;
2021/05/03 00:31:10;;;;;;;5.3;4.2;;;7.1;99.9;;;;;;;;;
2021/05/03 00:31:15;;;;;;;5.3;4.2;;;7.1;99.9;;;;;;;;;
2021/05/03 00:31:31;;;;;;;6.63;4.5;;;7.2;99.9;;;;;;;;;
2021/05/03 00:31:41;;;;;;;6.63;4.5;;;7.2;99.9;;;;;;;;;
2021/05/03 00:31:51;;;;;;;6.63;4.5;;;7.2;99.9;;;;;;;;;
2021/05/03 00:32:02;;;;;;;6.63;4.5;;;7.2;99.9;;;;;;;;;
2021/05/03 00:32:12;;;;;;;6.63;4.5;;;7.2;99.9;;;;;;;;;
2021/05/03 00:32:17;;;;;;;6.63;4.5;;;7.2;99.9;;;;;;;;;
2021/05/03 00:32:27;;;;;;;5.33;4.37;;;7.1;99.9;;;;;;;;;
2021/05/03 00:32:43;;;;;;;5.33;4.37;;;7.1;99.9;;;;;;;;;
2021/05/03 00:32:53;;;;;;;5.33;4.37;;;7.1;99.9;;;;;;;;;
2021/05/03 00:33:02;;;;;;;5.33;4.37;;;7.1;99.9;;;;;;;;;
2021/05/03 00:33:08;;;;;;;5.33;4.37;;;7.1;99.9;;;;;;;;;
2021/05/03 00:33:13;;;;;;;5.33;4.37;;;7.1;99.9;;;;;;;;;
2021/05/03 00:33:29;;;;;;;6.53;4.47;;;7.2;99.9;;;;;;;;;
2021/05/03 00:33:44;;;;;;;6.53;4.47;;;7.2;99.9;;;;;;;;;
2021/05/03 00:33:54;;;;;;;6.53;4.47;;;7.2;99.9;;;;;;;;;
2021/05/03 00:34:02;;;;;;;6.53;4.47;;;7.2;99.9;;;;;;;;;
2021/05/03 00:34:05;;;;;;;6.53;4.47;;;7.2;99.9;;;;;;;;;
2021/05/03 00:34:15;;;;;;;6.53;4.47;;;7.2;99.9;;;;;;;;;
2021/05/03 00:34:30;;;;;;;5.8;4.1;;;7.1;99.9;;;;;;;;;
2021/05/03 00:34:40;;;;;;;5.8;4.1;;;7.1;99.9;;;;;;;;;
2021/05/03 00:34:56;;;;;;;5.8;4.1;;;7.1;99.9;;;;;;;;;
2021/05/03 00:35:02;;;;;;;5.8;4.1;;;7.1;99.9;;;;;;;;;
2021/05/03 00:35:06;;;;;;;5.8;4.1;;;7.1;99.9;;;;;;;;;
2021/05/03 00:35:16;;;;;;;5.8;4.1;;;7.1;99.9;;;;;;;;;
2021/05/03 00:35:26;;;;;;;6.87;4.5;;;7.1;99.9;;;;;;;;;
2021/05/03 00:35:42;;;;;;;6.87;4.5;;;7.1;99.9;;;;;;;;;
2021/05/03 00:35:57;;;;;;;6.87;4.5;;;7.1;99.9;;;;;;;;;
2021/05/03 00:36:02;;;;;;;6.87;4.5;;;7.1;99.9;;;;;;;;;
2021/05/03 00:36:07;;;;;;;6.87;4.5;;;7.1;99.9;;;;;;;;;
2021/05/03 00:36:17;;;;;;;6.87;4.5;;;7.1;99.9;;;;;;;;;
2021/05/03 00:36:28;;;;;;;7.07;4.2;;;7.1;99.9;;;;;;;;;
2021/05/03 00:36:43;;;;;;;7.07;4.2;;;7.1;99.9;;;;;;;;;
2021/05/03 00:36:53;;;;;;;7.07;4.2;;;7.1;99.9;;;;;;;;;
2021/05/03 00:37:02;;;;;;;7.07;4.2;;;7.1;99.9;;;;;;;;;
2021/05/03 00:37:09;;;;;;;7.07;4.2;;;7.1;99.9;;;;;;;;;
2021/05/03 00:37:14;;;;;;;7.07;4.2;;;7.1;99.9;;;;;;;;;
2021/05/03 00:37:29;;;;;;;7.23;4.4;;;7.1;99.9;;;;;;;;;
2021/05/03 00:37:39;;;;;;;7.23;4.4;;;7.1;99.9;;;;;;;;;
2021/05/03 00:37:55;;;;;;;7.23;4.4;;;7.1;99.9;;;;;;;;;
2021/05/03 00:38:02;;;;;;;7.23;4.4;;;7.1;99.9;;;;;;;;;
2021/05/03 00:38:10;;;;;;;7.23;4.4;;;7.1;99.9;;;;;;;;;
2021/05/03 00:38:15;;;;;;;7.23;4.4;;;7.1;99.9;;;;;;;;;
2021/05/03 00:38:31;;;;;;;5.6;4.67;;;7.1;99.9;;;;;;;;;
2021/05/03 00:38:41;;;;;;;5.6;4.67;;;7.1;99.9;;;;;;;;;
2021/05/03 00:38:56;;;;;;;5.6;4.67;;;7.1;99.9;;;;;;;;;
2021/05/03 00:39:02;;;;;;;5.6;4.67;;;7.1;99.9;;;;;;;;;
2021/05/03 00:39:07;;;;;;;5.6;4.67;;;7.1;99.9;;;;;;;;;
2021/05/03 00:39:17;;;;;;;5.6;4.67;;;7.1;99.9;;;;;;;;;
2021/05/03 00:39:27;;;;;;;5.07;4.3;;;7.1;99.9;;;;;;;;;
2021/05/03 00:39:42;;;;;;;5.07;4.3;;;7.1;99.9;;;;;;;;;
2021/05/03 00:39:53;;;;;;;5.07;4.3;;;7.1;99.9;;;;;;;;;
2021/05/03 00:40:01;;;;;;;5.07;4.3;;;7.1;99.9;;;;;;;;;
2021/05/03 00:40:08;;;;;;;5.07;4.3;;;7.1;99.9;;;;;;;;;
2021/05/03 00:40:13;;;;;;;5.07;4.3;;;7.1;99.9;;;;;;;;;
2021/05/03 00:40:29;;;;;;;4.43;4.03;;;7.1;99.9;;;;;;;;;
2021/05/03 00:40:44;;;;;;;4.43;4.03;;;7.1;99.9;;;;;;;;;
2021/05/03 00:40:54;;;;;;;4.43;4.03;;;7.1;99.9;;;;;;;;;
2021/05/03 00:41:02;;;;;;;4.43;4.03;;;7.1;99.9;;;;;;;;;
2021/05/03 00:41:09;;;;;;;4.43;4.03;;;7.1;99.9;;;;;;;;;
2021/05/03 00:41:15;;;;;;;4.43;4.03;;;7.1;99.9;;;;;;;;;
2021/05/03 00:41:30;;;;;;;4.3;3.83;;;7;99.9;;;;;;;;;
2021/05/03 00:41:40;;;;;;;4.3;3.83;;;7;99.9;;;;;;;;;
2021/05/03 00:41:55;;;;;;;4.3;3.83;;;7;99.9;;;;;;;;;
2021/05/03 00:42:02;;;;;;;4.3;3.83;;;7;99.9;;;;;;;;;
2021/05/03 00:42:06;;;;;;;4.3;3.83;;;7;99.9;;;;;;;;;
2021/05/03 00:42:16;;;;;;;4.3;3.83;;;7;99.9;;;;;;;;;
2021/05/03 00:42:26;;;;;;;4.6;3.83;;;7;99.9;;;;;;;;;
2021/05/03 00:42:43;;;;;;;4.6;3.83;;;7;99.9;;;;;;;;;
2021/05/03 00:42:57;;;;;;;4.6;3.83;;;7;99.9;;;;;;;;;
2021/05/03 00:43:02;;;;;;;4.6;3.83;;;7;99.9;;;;;;;;;
2021/05/03 00:43:07;;;;;;;4.6;3.83;;;7;99.9;;;;;;;;;
2021/05/03 00:43:18;;;;;;;4.6;3.83;;;7;99.9;;;;;;;;;
2021/05/03 00:43:28;;;;;;;6.43;3.97;;;7.1;99.9;;;;;;;;;
2021/05/03 00:43:43;;;;;;;6.43;3.97;;;7.1;99.9;;;;;;;;;
2021/05/03 00:43:53;;;;;;;6.43;3.97;;;7.1;99.9;;;;;;;;;
2021/05/03 00:44:02;;;;;;;6.43;3.97;;;7.1;99.9;;;;;;;;;
2021/05/03 00:44:09;;;;;;;6.43;3.97;;;7.1;99.9;;;;;;;;;
2021/05/03 00:44:14;;;;;;;6.43;3.97;;;7.1;99.9;;;;;;;;;
2021/05/03 00:44:29;;;;;;;9.8;4.7;;;7.1;99.9;;;;;;;;;
2021/05/03 00:44:41;;;;;;;9.8;4.7;;;7.1;99.9;;;;;;;;;
2021/05/03 00:44:55;;;;;;;9.8;4.7;;;7.1;99.9;;;;;;;;;
2021/05/03 00:45:01;;;;;;;9.8;4.7;;;7.1;99.9;;;;;;;;;
2021/05/03 00:45:10;;;;;;;9.8;4.7;;;7.1;99.9;;;;;;;;;
2021/05/03 00:45:15;;;;;;;9.8;4.7;;;7.1;99.9;;;;;;;;;
2021/05/03 00:45:31;;;;;;;5.63;4.4;;;7.2;99.9;;;;;;;;;
2021/05/03 00:45:41;;;;;;;5.63;4.4;;;7.2;99.9;;;;;;;;;
2021/05/03 00:45:56;;;;;;;5.63;4.4;;;7.2;99.9;;;;;;;;;
2021/05/03 00:46:02;;;;;;;5.63;4.4;;;7.2;99.9;;;;;;;;;
2021/05/03 00:46:07;;;;;;;5.63;4.4;;;7.2;99.9;;;;;;;;;
2021/05/03 00:46:19;;;;;;;5.63;4.4;;;7.2;99.9;;;;;;;;;
2021/05/03 00:46:27;;;;;;;5.43;4.2;;;7.2;99.9;;;;;;;;;
2021/05/03 00:46:42;;;;;;;5.43;4.2;;;7.2;99.9;;;;;;;;;
2021/05/03 00:46:54;;;;;;;5.43;4.2;;;7.2;99.9;;;;;;;;;
2021/05/03 00:47:02;;;;;;;5.43;4.2;;;7.2;99.9;;;;;;;;;
2021/05/03 00:47:08;;;;;;;5.43;4.2;;;7.2;99.9;;;;;;;;;
2021/05/03 00:47:18;;;;;;;5.43;4.2;;;7.2;99.9;;;;;;;;;
2021/05/03 00:47:28;;;;;;;5.5;4.73;;;7.1;99.9;;;;;;;;;
2021/05/03 00:47:44;;;;;;;5.5;4.73;;;7.1;99.9;;;;;;;;;
2021/05/03 00:47:54;;;;;;;5.5;4.73;;;7.1;99.9;;;;;;;;;
2021/05/03 00:48:02;;;;;;;5.5;4.73;;;7.1;99.9;;;;;;;;;
2021/05/03 00:48:09;;;;;;;5.5;4.73;;;7.1;99.9;;;;;;;;;
2021/05/03 00:48:14;;;;;;;5.5;4.73;;;7.1;99.9;;;;;;;;;
2021/05/03 00:48:30;;;;;;;6;4.37;;;7.1;99.9;;;;;;;;;
2021/05/03 00:48:40;;;;;;;6;4.37;;;7.1;99.9;;;;;;;;;
2021/05/03 00:48:55;;;;;;;6;4.37;;;7.1;99.9;;;;;;;;;
2021/05/03 00:49:02;;;;;;;6;4.37;;;7.1;99.9;;;;;;;;;
2021/05/03 00:49:06;;;;;;;6;4.37;;;7.1;99.9;;;;;;;;;
2021/05/03 00:49:16;;;;;;;6;4.37;;;7.1;99.9;;;;;;;;;
2021/05/03 00:49:31;;;;;;;4.8;4.27;;;7.2;99.9;;;;;;;;;
2021/05/03 00:49:41;;;;;;;4.8;4.27;;;7.2;99.9;;;;;;;;;
2021/05/03 00:49:57;;;;;;;4.8;4.27;;;7.2;99.9;;;;;;;;;
2021/05/03 00:50:01;;;;;;;4.8;4.27;;;7.2;99.9;;;;;;;;;
2021/05/03 00:50:07;;;;;;;4.8;4.27;;;7.2;99.9;;;;;;;;;
2021/05/03 00:50:12;;;;;;;4.8;4.27;;;7.2;99.9;;;;;;;;;
2021/05/03 00:50:29;;;;;;;6;4;;;7.1;99.9;;;;;;;;;
2021/05/03 00:50:43;;;;;;;6;4;;;7.1;99.9;;;;;;;;;
2021/05/03 00:50:53;;;;;;;6;4;;;7.1;99.9;;;;;;;;;
2021/05/03 00:51:02;;;;;;;6;4;;;7.1;99.9;;;;;;;;;
2021/05/03 00:51:08;;;;;;;6;4;;;7.1;99.9;;;;;;;;;
2021/05/03 00:51:14;;;;;;;6;4;;;7.1;99.9;;;;;;;;;
2021/05/03 00:51:29;;;;;;;4.87;4.07;;;7;99.9;;;;;;;;;
2021/05/03 00:51:44;;;;;;;4.87;4.07;;;7;99.9;;;;;;;;;
2021/05/03 00:51:54;;;;;;;4.87;4.07;;;7;99.9;;;;;;;;;
2021/05/03 00:52:02;;;;;;;4.87;4.07;;;7;99.9;;;;;;;;;
2021/05/03 00:52:11;;;;;;;4.87;4.07;;;7;99.9;;;;;;;;;
2021/05/03 00:52:15;;;;;;;4.87;4.07;;;7;99.9;;;;;;;;;
2021/05/03 00:52:25;;;;;;;4.73;3.8;;;7;99.9;;;;;;;;;
2021/05/03 00:52:41;;;;;;;4.73;3.8;;;7;99.9;;;;;;;;;
2021/05/03 00:52:56;;;;;;;4.73;3.8;;;7;99.9;;;;;;;;;
2021/05/03 00:53:02;;;;;;;4.73;3.8;;;7;99.9;;;;;;;;;
2021/05/03 00:53:06;;;;;;;4.73;3.8;;;7;99.9;;;;;;;;;
2021/05/03 00:53:16;;;;;;;4.73;3.8;;;7;99.9;;;;;;;;;
2021/05/03 00:53:27;;;;;;;6.13;4.27;;;7;99.9;;;;;;;;;
2021/05/03 00:53:42;;;;;;;6.13;4.27;;;7;99.9;;;;;;;;;
2021/05/03 00:53:57;;;;;;;6.13;4.27;;;7;99.9;;;;;;;;;
2021/05/03 00:54:02;;;;;;;6.13;4.27;;;7;99.9;;;;;;;;;
2021/05/03 00:54:08;;;;;;;6.13;4.27;;;7;99.9;;;;;;;;;
2021/05/03 00:54:13;;;;;;;6.13;4.27;;;7;99.9;;;;;;;;;
2021/05/03 00:54:28;;;;;;;5.93;4.2;;;7;99.9;;;;;;;;;
2021/05/03 00:54:38;;;;;;;5.93;4.2;;;7;99.9;;;;;;;;;
2021/05/03 00:54:54;;;;;;;5.93;4.2;;;7;99.9;;;;;;;;;
2021/05/03 00:55:02;;;;;;;5.93;4.2;;;7;99.9;;;;;;;;;
2021/05/03 00:55:09;;;;;;;5.93;4.2;;;7;99.9;;;;;;;;;
2021/05/03 00:55:14;;;;;;;5.93;4.2;;;7;99.9;;;;;;;;;
2021/05/03 00:55:30;;;;;;;6.3;4.03;;;7;99.9;;;;;;;;;
2021/05/03 00:55:40;;;;;;;6.3;4.03;;;7;99.9;;;;;;;;;
2021/05/03 00:55:55;;;;;;;6.3;4.03;;;7;99.9;;;;;;;;;
2021/05/03 00:56:02;;;;;;;6.3;4.03;;;7;99.9;;;;;;;;;
2021/05/03 00:56:10;;;;;;;6.3;4.03;;;7;99.9;;;;;;;;;
2021/05/03 00:56:16;;;;;;;6.3;4.03;;;7;99.9;;;;;;;;;
2021/05/03 00:56:26;;;;;;;6.3;4.03;;;7;99.9;;;;;;;;;
2021/05/03 00:56:41;;;;;;;5.13;4.63;;;7.1;99.9;;;;;;;;;
2021/05/03 00:56:51;;;;;;;5.13;4.63;;;7.1;99.9;;;;;;;;;
2021/05/03 00:57:01;;;;;;;5.13;4.63;;;7.1;99.9;;;;;;;;;
2021/05/03 00:57:07;;;;;;;5.13;4.63;;;7.1;99.9;;;;;;;;;
2021/05/03 00:57:17;;;;;;;5.13;4.63;;;7.1;99.9;;;;;;;;;
2021/05/03 00:57:27;;;;;;;4.57;3.83;;;7.1;99.9;;;;;;;;;
2021/05/03 00:57:43;;;;;;;4.57;3.83;;;7.1;99.9;;;;;;;;;
2021/05/03 00:57:53;;;;;;;4.57;3.83;;;7.1;99.9;;;;;;;;;
2021/05/03 00:58:03;;;;;;;4.57;3.83;;;7.1;99.9;;;;;;;;;
2021/05/03 00:58:08;;;;;;;4.57;3.83;;;7.1;99.9;;;;;;;;;
2021/05/03 00:58:13;;;;;;;4.57;3.83;;;7.1;99.9;;;;;;;;;
2021/05/03 00:58:29;;;;;;;4.7;4.2;;;7.1;99.9;;;;;;;;;
2021/05/03 00:58:39;;;;;;;4.7;4.2;;;7.1;99.9;;;;;;;;;
2021/05/03 00:58:54;;;;;;;4.7;4.2;;;7.1;99.9;;;;;;;;;
2021/05/03 00:59:02;;;;;;;4.7;4.2;;;7.1;99.9;;;;;;;;;
2021/05/03 00:59:04;;;;;;;4.7;4.2;;;7.1;99.9;;;;;;;;;
2021/05/03 00:59:15;;;;;;;4.7;4.2;;;7.1;99.9;;;;;;;;;
2021/05/03 00:59:30;;;;;;;5.83;4.27;;;7;99.9;;;;;;;;;
2021/05/03 00:59:40;;;;;;;5.83;4.27;;;7;99.9;;;;;;;;;
2021/05/03 00:59:56;;;;;;;5.83;4.27;;;7;99.9;;;;;;;;;
2021/05/03 01:00:02;;;;;;;5.83;4.27;;;7;99.9;;;;;;;;;
2021/05/03 01:00:06;;;;;;;5.83;4.27;;;7;99.9;;;;;;;;;
2021/05/03 01:00:16;;;;;;;5.83;4.27;;;7;99.9;;;;;;;;;
2021/05/03 01:00:26;;;;;;;5.83;4.27;;;7;99.9;;;;;;;;;
2021/05/03 01:00:42;;;;;;;7.37;4.37;;;7.1;99.9;;;;;;;;;
2021/05/03 01:00:52;;;;;;;7.37;4.37;;;7.1;99.9;;;;;;;;;
2021/05/03 01:01:02;;;;;;;7.37;4.37;;;7.1;99.9;;;;;;;;;
2021/05/03 01:01:07;;;;;;;7.37;4.37;;;7.1;99.9;;;;;;;;;
2021/05/03 01:01:13;;;;;;;7.37;4.37;;;7.1;99.9;;;;;;;;;
2021/05/03 01:01:28;;;;;;;5.13;3.7;;;7.1;99.9;;;;;;;;;
2021/05/03 01:01:43;;;;;;;5.13;3.7;;;7.1;99.9;;;;;;;;;
2021/05/03 01:01:54;;;;;;;5.13;3.7;;;7.1;99.9;;;;;;;;;
2021/05/03 01:02:03;;;;;;;5.13;3.7;;;7.1;99.9;;;;;;;;;
2021/05/03 01:02:09;;;;;;;5.13;3.7;;;7.1;99.9;;;;;;;;;
2021/05/03 01:02:14;;;;;;;5.13;3.7;;;7.1;99.9;;;;;;;;;
2021/05/03 01:02:29;;;;;;;5.23;4.6;;;7;99.9;;;;;;;;;
2021/05/03 01:02:40;;;;;;;5.23;4.6;;;7;99.9;;;;;;;;;
2021/05/03 01:02:55;;;;;;;5.23;4.6;;;7;99.9;;;;;;;;;
2021/05/03 01:03:02;;;;;;;5.23;4.6;;;7;99.9;;;;;;;;;
2021/05/03 01:03:06;;;;;;;5.23;4.6;;;7;99.9;;;;;;;;;
2021/05/03 01:03:15;;;;;;;5.23;4.6;;;7;99.9;;;;;;;;;
2021/05/03 01:03:26;;;;;;;5.23;4.6;;;7;99.9;;;;;;;;;
2021/05/03 01:03:41;;;;;;;5.77;4.4;;;6.9;99.9;;;;;;;;;
2021/05/03 01:03:56;;;;;;;5.77;4.4;;;6.9;99.9;;;;;;;;;
2021/05/03 01:04:02;;;;;;;5.77;4.4;;;6.9;99.9;;;;;;;;;
2021/05/03 01:04:07;;;;;;;5.77;4.4;;;6.9;99.9;;;;;;;;;
2021/05/03 01:04:17;;;;;;;5.77;4.4;;;6.9;99.9;;;;;;;;;
2021/05/03 01:04:27;;;;;;;5.77;4.4;;;6.9;99.9;;;;;;;;;
2021/05/03 01:04:43;;;;;;;4.97;3.93;;;6.9;99.9;;;;;;;;;
2021/05/03 01:04:53;;;;;;;4.97;3.93;;;6.9;99.9;;;;;;;;;
2021/05/03 01:05:02;;;;;;;4.97;3.93;;;6.9;99.9;;;;;;;;;
2021/05/03 01:05:08;;;;;;;4.97;3.93;;;6.9;99.9;;;;;;;;;
2021/05/03 01:05:13;;;;;;;4.97;3.93;;;6.9;99.9;;;;;;;;;
2021/05/03 01:05:29;;;;;;;4.97;3.93;;;6.9;99.9;;;;;;;;;
2021/05/03 01:05:39;;;;;;;6.7;3.83;;;7;99.9;;;;;;;;;
2021/05/03 01:05:54;;;;;;;6.7;3.83;;;7;99.9;;;;;;;;;
2021/05/03 01:06:02;;;;;;;6.7;3.83;;;7;99.9;;;;;;;;;
2021/05/03 01:06:10;;;;;;;6.7;3.83;;;7;99.9;;;;;;;;;
2021/05/03 01:06:18;;;;;;;6.7;3.83;;;7;99.9;;;;;;;;;
2021/05/03 01:06:30;;;;;;;4.27;3.87;;;7;99.9;;;;;;;;;
2021/05/03 01:06:42;;;;;;;4.27;3.87;;;7;99.9;;;;;;;;;
2021/05/03 01:06:56;;;;;;;4.27;3.87;;;7;99.9;;;;;;;;;
2021/05/03 01:07:01;;;;;;;4.27;3.87;;;7;99.9;;;;;;;;;
2021/05/03 01:07:06;;;;;;;4.27;3.87;;;7;99.9;;;;;;;;;
2021/05/03 01:07:16;;;;;;;4.27;3.87;;;7;99.9;;;;;;;;;
2021/05/03 01:07:26;;;;;;;4.27;3.87;;;7;99.9;;;;;;;;;
2021/05/03 01:07:42;;;;;;;4.93;4.27;;;7;99.9;;;;;;;;;
2021/05/03 01:07:52;;;;;;;4.93;4.27;;;7;99.9;;;;;;;;;
2021/05/03 01:08:02;;;;;;;4.93;4.27;;;7;99.9;;;;;;;;;
2021/05/03 01:08:09;;;;;;;4.93;4.27;;;7;99.9;;;;;;;;;
2021/05/03 01:08:12;;;;;;;4.93;4.27;;;7;99.9;;;;;;;;;
2021/05/03 01:08:28;;;;;;;4.93;4.27;;;7;99.9;;;;;;;;;
2021/05/03 01:08:43;;;;;;;6.63;4.6;;;7;99.9;;;;;;;;;
2021/05/03 01:08:53;;;;;;;6.63;4.6;;;7;99.9;;;;;;;;;
2021/05/03 01:09:02;;;;;;;6.63;4.6;;;7;99.9;;;;;;;;;
2021/05/03 01:09:09;;;;;;;6.63;4.6;;;7;99.9;;;;;;;;;
2021/05/03 01:09:14;;;;;;;6.63;4.6;;;7;99.9;;;;;;;;;
2021/05/03 01:09:29;;;;;;;6.63;4.6;;;7;99.9;;;;;;;;;
2021/05/03 01:09:39;;;;;;;11.2;4.87;;;6.9;99.9;;;;;;;;;
2021/05/03 01:09:55;;;;;;;11.2;4.87;;;6.9;99.9;;;;;;;;;
2021/05/03 01:10:01;;;;;;;11.2;4.87;;;6.9;99.9;;;;;;;;;
2021/05/03 01:10:05;;;;;;;11.2;4.87;;;6.9;99.9;;;;;;;;;
2021/05/03 01:10:15;;;;;;;11.2;4.87;;;6.9;99.9;;;;;;;;;
2021/05/03 01:10:26;;;;;;;11.2;4.87;;;6.9;99.9;;;;;;;;;
2021/05/03 01:10:41;;;;;;;6.4;4.7;;;6.9;99.9;;;;;;;;;
2021/05/03 01:10:56;;;;;;;6.4;4.7;;;6.9;99.9;;;;;;;;;
2021/05/03 01:11:02;;;;;;;6.4;4.7;;;6.9;99.9;;;;;;;;;
2021/05/03 01:11:07;;;;;;;6.4;4.7;;;6.9;99.9;;;;;;;;;
2021/05/03 01:11:17;;;;;;;6.4;4.7;;;6.9;99.9;;;;;;;;;
2021/05/03 01:11:27;;;;;;;6.4;4.7;;;6.9;99.9;;;;;;;;;
2021/05/03 01:11:42;;;;;;;6.7;4.63;;;6.8;99.9;;;;;;;;;
2021/05/03 01:11:53;;;;;;;6.7;4.63;;;6.8;99.9;;;;;;;;;
2021/05/03 01:12:01;;;;;;;6.7;4.63;;;6.8;99.9;;;;;;;;;
2021/05/03 01:12:08;;;;;;;6.7;4.63;;;6.8;99.9;;;;;;;;;
2021/05/03 01:12:13;;;;;;;6.7;4.63;;;6.8;99.9;;;;;;;;;
2021/05/03 01:12:28;;;;;;;6.7;4.63;;;6.8;99.9;;;;;;;;;
2021/05/03 01:12:39;;;;;;;5.17;4.43;;;6.8;99.9;;;;;;;;;
2021/05/03 01:12:54;;;;;;;5.17;4.43;;;6.8;99.9;;;;;;;;;
2021/05/03 01:13:02;;;;;;;5.17;4.43;;;6.8;99.9;;;;;;;;;
2021/05/03 01:13:09;;;;;;;5.17;4.43;;;6.8;99.9;;;;;;;;;
2021/05/03 01:13:14;;;;;;;5.17;4.43;;;6.8;99.9;;;;;;;;;
2021/05/03 01:13:30;;;;;;;5.17;4.43;;;6.8;99.9;;;;;;;;;
2021/05/03 01:13:40;;;;;;;6.97;4.73;;;6.8;99.9;;;;;;;;;
2021/05/03 01:13:55;;;;;;;6.97;4.73;;;6.8;99.9;;;;;;;;;
2021/05/03 01:14:02;;;;;;;6.97;4.73;;;6.8;99.9;;;;;;;;;
2021/05/03 01:14:06;;;;;;;6.97;4.73;;;6.8;99.9;;;;;;;;;
2021/05/03 01:14:16;;;;;;;6.97;4.73;;;6.8;99.9;;;;;;;;;
2021/05/03 01:14:26;;;;;;;6.97;4.73;;;6.8;99.9;;;;;;;;;
2021/05/03 01:14:41;;;;;;;6.6;4.7;;;6.8;99.9;;;;;;;;;
2021/05/03 01:14:52;;;;;;;6.6;4.7;;;6.8;99.9;;;;;;;;;
2021/05/03 01:15:02;;;;;;;6.6;4.7;;;6.8;99.9;;;;;;;;;
2021/05/03 01:15:07;;;;;;;6.6;4.7;;;6.8;99.9;;;;;;;;;
2021/05/03 01:15:12;;;;;;;6.6;4.7;;;6.8;99.9;;;;;;;;;
2021/05/03 01:15:28;;;;;;;6.6;4.7;;;6.8;99.9;;;;;;;;;
2021/05/03 01:15:43;;;;;;;5.17;4.03;;;6.8;99.9;;;;;;;;;
2021/05/03 01:15:53;;;;;;;5.17;4.03;;;6.8;99.9;;;;;;;;;
2021/05/03 01:16:02;;;;;;;5.17;4.03;;;6.8;99.9;;;;;;;;;
2021/05/03 01:16:09;;;;;;;5.17;4.03;;;6.8;99.9;;;;;;;;;
2021/05/03 01:16:14;;;;;;;5.17;4.03;;;6.8;99.9;;;;;;;;;
2021/05/03 01:16:29;;;;;;;5.17;4.03;;;6.8;99.9;;;;;;;;;
2021/05/03 01:16:39;;;;;;;4.5;3.87;;;6.9;99.9;;;;;;;;;
2021/05/03 01:16:55;;;;;;;4.5;3.87;;;6.9;99.9;;;;;;;;;
2021/05/03 01:17:01;;;;;;;4.5;3.87;;;6.9;99.9;;;;;;;;;
2021/05/03 01:17:05;;;;;;;4.5;3.87;;;6.9;99.9;;;;;;;;;
2021/05/03 01:17:15;;;;;;;4.5;3.87;;;6.9;99.9;;;;;;;;;
2021/05/03 01:17:25;;;;;;;4.5;3.87;;;6.9;99.9;;;;;;;;;
2021/05/03 01:17:41;;;;;;;6.23;4.77;;;6.9;99.9;;;;;;;;;
2021/05/03 01:17:57;;;;;;;6.23;4.77;;;6.9;99.9;;;;;;;;;
2021/05/03 01:18:02;;;;;;;6.23;4.77;;;6.9;99.9;;;;;;;;;